Time;durP1;ratioP1;P1;durP2;ratioP2;P2;SDS_P1;SDS_P2;PMS_P1;PMS_P2;Temp;Humidity;BMP_temperature;BMP_pressure;BME280_temperature;BME280_humidity;BME280_pressure;Samples;Min_cycle;Max_cycle;Signal;HPM_P1;HPM_P2
2021/08/04 00:01:33;;;;;;;4.45;2.90;;;17.10;91.70;;;;;;4947454;28;20026;-83
2021/08/04 00:03:58;;;;;;;4.00;2.83;;;17.10;91.70;;;;;;4971376;28;20038;-83
2021/08/04 00:06:24;;;;;;;3.55;2.53;;;17.00;91.60;;;;;;4972084;28;20030;-83
2021/08/04 00:08:50;;;;;;;4.43;2.70;;;17.00;91.80;;;;;;4959944;28;20018;-84
2021/08/04 00:11:16;;;;;;;4.82;3.00;;;17.00;91.80;;;;;;4976300;28;20023;-83
2021/08/04 00:13:41;;;;;;;4.53;3.20;;;17.00;91.70;;;;;;5001720;28;20019;-84
2021/08/04 00:16:07;;;;;;;5.65;3.15;;;16.90;91.70;;;;;;4969426;28;20038;-84
2021/08/04 00:18:33;;;;;;;4.38;2.40;;;16.90;91.60;;;;;;4959595;28;20062;-84
2021/08/04 00:20:59;;;;;;;4.72;3.10;;;16.90;91.70;;;;;;4966705;28;20046;-84
2021/08/04 00:23:25;;;;;;;3.88;2.90;;;16.80;91.80;;;;;;5001137;28;20555;-84
2021/08/04 00:25:51;;;;;;;3.85;2.90;;;16.70;91.90;;;;;;4984395;28;20090;-83
2021/08/04 00:28:17;;;;;;;5.28;3.55;;;16.70;91.90;;;;;;5000693;28;20034;-83
2021/08/04 00:30:43;;;;;;;5.35;3.70;;;16.70;92.00;;;;;;4989522;28;20072;-83
2021/08/04 00:33:08;;;;;;;6.05;3.85;;;16.70;92.20;;;;;;4987873;28;20064;-83
2021/08/04 00:35:34;;;;;;;5.57;3.75;;;16.70;92.30;;;;;;5000803;28;20025;-83
2021/08/04 00:38:00;;;;;;;5.80;3.63;;;16.60;92.30;;;;;;4952142;28;20034;-83
2021/08/04 00:40:26;;;;;;;5.38;3.70;;;16.60;92.30;;;;;;4953243;28;20558;-83
2021/08/04 00:42:51;;;;;;;5.95;3.60;;;16.60;92.40;;;;;;4976744;28;20165;-83
2021/08/04 00:45:17;;;;;;;7.38;3.53;;;16.60;92.40;;;;;;4959920;28;20029;-83
2021/08/04 00:47:43;;;;;;;5.30;3.65;;;16.60;92.40;;;;;;4963976;28;20126;-83
2021/08/04 00:50:10;;;;;;;5.70;3.58;;;16.60;92.50;;;;;;4975128;28;20034;-84
2021/08/04 00:52:36;;;;;;;6.60;3.40;;;16.60;92.40;;;;;;4978422;28;20476;-83
2021/08/04 00:55:02;;;;;;;5.18;3.53;;;16.60;92.40;;;;;;4978942;28;20030;-83
2021/08/04 00:57:28;;;;;;;4.18;3.13;;;16.50;92.40;;;;;;4979860;28;20026;-84
2021/08/04 00:59:54;;;;;;;5.05;3.00;;;16.50;92.40;;;;;;4983404;28;20033;-83
2021/08/04 01:02:43;;;;;;;4.00;3.30;;;16.50;92.50;;;;;;4949022;28;20017;-83
2021/08/04 01:05:28;;;;;;;5.07;3.58;;;16.40;92.30;;;;;;4966879;28;20473;-83
2021/08/04 01:08:12;;;;;;;4.47;3.38;;;16.40;92.20;;;;;;4990674;28;20082;-83
2021/08/04 01:10:42;;;;;;;5.82;3.40;;;16.40;92.40;;;;;;4984408;28;20036;-83
2021/08/04 01:13:31;;;;;;;4.53;3.22;;;16.40;92.50;;;;;;4998255;28;20554;-83
2021/08/04 01:16:10;;;;;;;7.05;3.40;;;16.40;92.50;;;;;;4980026;28;20030;-83
2021/08/04 01:18:46;;;;;;;6.63;3.50;;;16.30;92.50;;;;;;5000830;28;20050;-84
2021/08/04 01:21:14;;;;;;;5.40;3.80;;;16.30;92.40;;;;;;5005739;28;20037;-84
2021/08/04 01:23:52;;;;;;;7.15;4.20;;;16.30;92.60;;;;;;5001154;28;20496;-83
2021/08/04 01:26:34;;;;;;;9.10;4.53;;;16.30;92.60;;;;;;5001917;28;20080;-83
2021/08/04 01:29:01;;;;;;;6.82;3.83;;;16.20;92.60;;;;;;5000999;28;20026;-83
2021/08/04 01:31:29;;;;;;;7.20;3.80;;;16.20;92.60;;;;;;4971511;28;20030;-84
2021/08/04 01:33:57;;;;;;;20.92;4.15;;;16.20;92.60;;;;;;4993743;28;20033;-84
2021/08/04 01:36:23;;;;;;;7.65;4.15;;;16.20;92.50;;;;;;5003673;28;20030;-83
2021/08/04 01:38:50;;;;;;;6.75;4.03;;;16.20;92.60;;;;;;5000813;28;20034;-84
2021/08/04 01:41:17;;;;;;;8.77;3.42;;;16.10;92.40;;;;;;4959253;28;20070;-83
2021/08/04 01:43:44;;;;;;;4.80;3.25;;;16.10;92.30;;;;;;4983564;28;20026;-84
2021/08/04 01:46:12;;;;;;;5.45;3.40;;;16.00;92.40;;;;;;4981646;28;20022;-83
2021/08/04 01:48:42;;;;;;;4.55;2.83;;;16.00;92.50;;;;;;4979803;28;20495;-84
2021/08/04 01:51:09;;;;;;;6.05;3.17;;;16.00;92.50;;;;;;4962201;28;20034;-83
2021/08/04 01:53:36;;;;;;;4.60;2.92;;;16.00;92.70;;;;;;4978143;28;20037;-84
2021/08/04 01:56:03;;;;;;;7.32;3.67;;;15.90;92.60;;;;;;4975108;28;20088;-84
2021/08/04 01:58:29;;;;;;;5.15;3.10;;;15.90;92.70;;;;;;4986733;28;20026;-83
2021/08/04 02:00:55;;;;;;;7.63;3.60;;;15.90;92.70;;;;;;4975846;28;20030;-83
2021/08/04 02:03:20;;;;;;;5.57;3.67;;;15.90;92.70;;;;;;4958385;28;20019;-83
2021/08/04 02:05:47;;;;;;;5.03;3.30;;;15.90;92.60;;;;;;4984012;28;20328;-84
2021/08/04 02:08:16;;;;;;;7.22;3.83;;;15.90;92.60;;;;;;4985503;28;20486;-84
2021/08/04 02:10:58;;;;;;;5.70;3.53;;;15.80;92.60;;;;;;4985392;28;20531;-84
2021/08/04 02:13:53;;;;;;;6.72;3.53;;;15.80;92.50;;;;;;4978286;28;20022;-84
2021/08/04 02:16:45;;;;;;;5.32;3.58;;;15.80;92.50;;;;;;4994604;28;20046;-84
2021/08/04 02:19:27;;;;;;;5.43;3.47;;;15.80;92.70;;;;;;4975482;28;20035;-84
2021/08/04 02:22:03;;;;;;;5.05;3.63;;;15.80;92.60;;;;;;4992506;28;20506;-83
2021/08/04 02:24:35;;;;;;;6.03;4.15;;;15.70;92.70;;;;;;4986154;28;20515;-83
2021/08/04 02:27:05;;;;;;;5.72;3.67;;;15.70;92.80;;;;;;4993733;28;20388;-84
2021/08/04 02:29:35;;;;;;;5.22;3.75;;;15.70;92.80;;;;;;4995127;28;20027;-84
2021/08/04 02:32:02;;;;;;;7.70;4.05;;;15.60;92.90;;;;;;4992843;28;20464;-84
2021/08/04 02:34:29;;;;;;;6.75;4.40;;;15.60;92.90;;;;;;4951719;28;20057;-84
2021/08/04 02:36:54;;;;;;;6.22;4.05;;;15.60;92.90;;;;;;5003178;28;20030;-83
2021/08/04 02:39:21;;;;;;;9.10;4.20;;;15.60;93.00;;;;;;5000281;28;20113;-84
2021/08/04 02:41:47;;;;;;;5.35;4.00;;;15.60;92.90;;;;;;4993018;28;20022;-84
2021/08/04 02:44:15;;;;;;;5.88;3.60;;;15.60;92.90;;;;;;4979080;28;20037;-84
2021/08/04 02:46:45;;;;;;;8.45;4.18;;;15.60;92.80;;;;;;4971174;28;20120;-84
2021/08/04 02:49:14;;;;;;;6.25;4.25;;;15.60;92.90;;;;;;4980452;28;20377;-84
2021/08/04 02:51:41;;;;;;;5.07;3.53;;;15.50;92.80;;;;;;4960902;28;20511;-83
2021/08/04 02:54:07;;;;;;;6.53;4.25;;;15.50;93.20;;;;;;4988638;28;20022;-85
2021/08/04 02:56:33;;;;;;;5.70;3.67;;;15.50;92.90;;;;;;4993088;28;20073;-84
2021/08/04 02:58:58;;;;;;;5.68;3.63;;;15.50;92.90;;;;;;4967035;28;20034;-84
2021/08/04 03:01:24;;;;;;;6.10;3.60;;;15.50;92.90;;;;;;4995701;28;20058;-84
2021/08/04 03:03:50;;;;;;;5.28;3.60;;;15.40;92.80;;;;;;4949762;28;20034;-84
2021/08/04 03:06:15;;;;;;;5.65;3.97;;;15.40;92.80;;;;;;4987822;28;20019;-84
2021/08/04 03:08:41;;;;;;;7.20;4.05;;;15.40;92.90;;;;;;4957467;28;20046;-84
2021/08/04 03:11:08;;;;;;;8.10;4.13;;;15.40;92.70;;;;;;4974091;28;20085;-84
2021/08/04 03:13:34;;;;;;;6.20;3.83;;;15.30;92.80;;;;;;4960497;28;20027;-83
2021/08/04 03:16:00;;;;;;;6.13;3.97;;;15.30;92.80;;;;;;4995330;28;20029;-84
2021/08/04 03:18:26;;;;;;;5.82;3.70;;;15.30;92.90;;;;;;4979914;28;20038;-84
2021/08/04 03:20:51;;;;;;;5.13;3.50;;;15.30;93.10;;;;;;4982866;28;20080;-84
2021/08/04 03:23:18;;;;;;;5.18;3.10;;;15.30;93.10;;;;;;4949909;28;20018;-84
2021/08/04 03:25:43;;;;;;;5.53;3.60;;;15.30;93.10;;;;;;4965342;28;20026;-84
2021/08/04 03:28:09;;;;;;;5.75;3.72;;;15.20;93.10;;;;;;5004049;28;20027;-84
2021/08/04 03:30:34;;;;;;;5.35;3.80;;;15.20;93.20;;;;;;4960499;28;20031;-83
2021/08/04 03:33:00;;;;;;;6.07;3.60;;;15.20;93.00;;;;;;4992561;28;20392;-84
2021/08/04 03:35:26;;;;;;;5.40;3.50;;;15.20;93.10;;;;;;4946472;28;20070;-84
2021/08/04 03:37:52;;;;;;;4.60;3.55;;;15.20;93.30;;;;;;4979425;28;20420;-84
2021/08/04 03:40:17;;;;;;;5.20;3.47;;;15.10;93.20;;;;;;4995681;28;20037;-84
2021/08/04 03:42:43;;;;;;;5.43;3.00;;;15.10;93.20;;;;;;4991413;28;20026;-83
2021/08/04 03:45:09;;;;;;;3.83;2.83;;;15.10;93.20;;;;;;4953753;28;20383;-83
2021/08/04 03:47:35;;;;;;;4.43;2.95;;;15.00;93.20;;;;;;4976944;28;20104;-84
2021/08/04 03:50:01;;;;;;;4.95;2.95;;;15.00;93.30;;;;;;4983986;28;20022;-83
2021/08/04 03:52:52;;;;;;;6.47;3.20;;;15.00;93.20;;;;;;4965201;28;20026;-83
2021/08/04 03:55:17;;;;;;;4.18;2.75;;;15.00;93.20;;;;;;4992212;28;20037;-83
2021/08/04 03:57:43;;;;;;;4.95;2.60;;;15.00;93.30;;;;;;4961640;28;20026;-83
2021/08/04 04:00:10;;;;;;;3.72;2.22;;;14.90;93.30;;;;;;4956421;28;20153;-84
2021/08/04 04:02:36;;;;;;;3.92;2.65;;;14.90;93.20;;;;;;4972821;28;20097;-84
2021/08/04 04:05:02;;;;;;;4.50;2.80;;;14.90;93.20;;;;;;4975776;28;20133;-84
2021/08/04 04:07:27;;;;;;;4.07;2.90;;;14.90;93.30;;;;;;4975819;28;20022;-83
2021/08/04 04:09:53;;;;;;;4.70;2.40;;;14.80;93.20;;;;;;4956479;28;20042;-83
2021/08/04 04:12:19;;;;;;;3.03;2.30;;;14.80;93.20;;;;;;4991873;28;20038;-84
2021/08/04 04:14:44;;;;;;;4.15;2.45;;;14.80;93.20;;;;;;4959535;28;20092;-84
2021/08/04 04:17:10;;;;;;;5.25;2.70;;;14.80;93.30;;;;;;4975641;28;20077;-84
2021/08/04 04:19:36;;;;;;;3.38;2.50;;;14.80;93.20;;;;;;4956199;28;20030;-84
2021/08/04 04:22:02;;;;;;;4.80;2.75;;;14.70;93.30;;;;;;5009266;23;20096;-87
2021/08/04 04:24:27;;;;;;;2.83;2.20;;;14.70;93.40;;;;;;4983784;28;20022;-86
2021/08/04 04:26:53;;;;;;;3.55;2.40;;;14.70;93.40;;;;;;5012959;28;20030;-86
2021/08/04 04:29:18;;;;;;;3.88;2.67;;;14.70;93.50;;;;;;5009021;28;20069;-86
2021/08/04 04:31:44;;;;;;;3.45;2.45;;;14.70;93.50;;;;;;4979143;28;20061;-86
2021/08/04 04:34:10;;;;;;;2.10;1.80;;;14.70;93.50;;;;;;5009801;28;20045;-86
2021/08/04 04:36:35;;;;;;;3.10;2.10;;;14.70;93.60;;;;;;5001956;28;20060;-89
2021/08/04 04:39:01;;;;;;;4.40;2.25;;;14.70;93.60;;;;;;4995064;28;20081;-88
2021/08/04 04:41:27;;;;;;;3.65;2.50;;;14.70;93.70;;;;;;4995363;28;20026;-89
2021/08/04 04:43:53;;;;;;;4.00;2.88;;;14.70;93.80;;;;;;4995299;28;20037;-88
2021/08/04 04:46:19;;;;;;;4.53;2.90;;;14.70;93.80;;;;;;5009006;28;20022;-88
2021/08/04 04:48:44;;;;;;;5.78;3.00;;;14.60;93.90;;;;;;4959685;28;20042;-88
2021/08/04 04:51:10;;;;;;;4.13;2.63;;;14.70;94.00;;;;;;5009664;28;20031;-88
2021/08/04 04:53:36;;;;;;;3.45;2.70;;;14.60;94.10;;;;;;4962952;28;20022;-88
2021/08/04 04:56:02;;;;;;;5.82;3.03;;;14.60;94.20;;;;;;5012530;28;20080;-88
2021/08/04 04:58:27;;;;;;;4.43;2.45;;;14.60;94.10;;;;;;4995115;28;20117;-87
2021/08/04 05:00:53;;;;;;;4.63;2.90;;;14.60;94.50;;;;;;4995213;28;20038;-86
2021/08/04 05:03:18;;;;;;;3.83;2.70;;;14.60;94.30;;;;;;4986659;28;20479;-86
2021/08/04 05:05:45;;;;;;;3.85;2.75;;;14.60;94.30;;;;;;4993427;28;20043;-86
2021/08/04 05:08:11;;;;;;;4.05;2.80;;;14.60;94.40;;;;;;5028870;28;20509;-86
2021/08/04 05:10:37;;;;;;;3.72;2.55;;;14.60;94.60;;;;;;4982514;28;20124;-86
2021/08/04 05:13:05;;;;;;;4.15;2.70;;;14.60;94.50;;;;;;4979125;28;20030;-88
2021/08/04 05:15:33;;;;;;;4.15;2.95;;;14.60;94.50;;;;;;4977993;28;20022;-88
2021/08/04 05:18:01;;;;;;;4.43;2.70;;;14.60;94.50;;;;;;4996645;28;20023;-88
2021/08/04 05:20:28;;;;;;;4.55;2.90;;;14.70;94.80;;;;;;4969675;28;20030;-88
2021/08/04 05:22:54;;;;;;;5.47;2.95;;;14.70;94.60;;;;;;4995534;28;20033;-89
2021/08/04 05:25:19;;;;;;;4.03;2.80;;;14.70;94.70;;;;;;4982656;28;20030;-88
2021/08/04 05:27:45;;;;;;;4.65;3.60;;;14.70;94.80;;;;;;5016127;28;20483;-88
2021/08/04 05:30:12;;;;;;;4.82;3.10;;;14.70;94.90;;;;;;5014877;28;20058;-88
2021/08/04 05:32:38;;;;;;;4.97;3.45;;;14.70;94.80;;;;;;4998652;28;20022;-88
2021/08/04 05:35:05;;;;;;;5.15;3.60;;;14.70;94.80;;;;;;4998149;28;20443;-89
2021/08/04 05:37:31;;;;;;;5.57;3.92;;;14.80;94.90;;;;;;5014622;28;20033;-88
2021/08/04 05:39:56;;;;;;;5.82;3.80;;;14.80;95.00;;;;;;5014502;28;20033;-88
2021/08/04 05:42:22;;;;;;;5.85;3.55;;;14.80;95.00;;;;;;4998351;28;20025;-88
2021/08/04 05:44:47;;;;;;;5.95;4.00;;;14.90;95.10;;;;;;4981864;28;20392;-88
2021/08/04 05:47:13;;;;;;;5.32;3.65;;;14.90;95.10;;;;;;4979028;28;20058;-88
2021/08/04 05:49:39;;;;;;;5.25;3.75;;;15.00;95.10;;;;;;5007751;28;20483;-88
2021/08/04 05:52:05;;;;;;;6.03;4.13;;;15.00;95.10;;;;;;5013903;28;20030;-88
2021/08/04 05:54:31;;;;;;;6.72;3.83;;;15.00;95.10;;;;;;5013448;28;20040;-88
2021/08/04 05:56:56;;;;;;;6.10;4.55;;;15.10;95.10;;;;;;4996364;28;20029;-88
2021/08/04 05:59:22;;;;;;;5.75;4.32;;;15.10;95.10;;;;;;4980609;28;20038;-89
2021/08/04 06:01:48;;;;;;;7.55;3.85;;;15.10;95.10;;;;;;4967652;28;20025;-89
2021/08/04 06:04:13;;;;;;;4.95;3.83;;;15.20;95.00;;;;;;4996347;28;20030;-86
2021/08/04 06:06:39;;;;;;;7.32;4.78;;;15.20;95.10;;;;;;5000078;28;20030;-86
2021/08/04 06:09:05;;;;;;;6.60;4.40;;;15.20;95.10;;;;;;4978057;28;20038;-86
2021/08/04 06:11:30;;;;;;;6.50;4.15;;;15.30;95.10;;;;;;4973909;28;20088;-86
2021/08/04 06:13:56;;;;;;;6.95;4.50;;;15.40;95.20;;;;;;4979558;28;20088;-86
2021/08/04 06:16:21;;;;;;;7.43;4.82;;;15.40;95.20;;;;;;4995579;28;20026;-86
2021/08/04 06:18:47;;;;;;;7.97;5.00;;;15.40;95.20;;;;;;5002113;28;20030;-86
2021/08/04 06:21:13;;;;;;;6.68;4.63;;;15.50;95.20;;;;;;4994289;28;20056;-86
2021/08/04 06:23:38;;;;;;;7.20;4.90;;;15.50;95.20;;;;;;4978960;28;20050;-87
2021/08/04 06:26:04;;;;;;;7.82;5.13;;;15.60;95.30;;;;;;4988455;28;20037;-86
2021/08/04 06:28:30;;;;;;;6.75;4.57;;;15.60;95.30;;;;;;4994412;28;20438;-86
2021/08/04 06:30:55;;;;;;;7.25;4.80;;;15.60;95.30;;;;;;5013608;28;20026;-85
2021/08/04 06:33:21;;;;;;;6.30;4.70;;;15.70;95.30;;;;;;4989234;28;20026;-86
2021/08/04 06:35:47;;;;;;;5.65;4.00;;;15.80;95.30;;;;;;4999326;28;20649;-86
2021/08/04 06:38:13;;;;;;;5.43;4.03;;;15.80;95.30;;;;;;4986583;28;20026;-86
2021/08/04 06:40:38;;;;;;;5.70;4.22;;;15.90;95.40;;;;;;5011714;28;20034;-86
2021/08/04 06:43:04;;;;;;;6.10;4.45;;;15.90;95.40;;;;;;4980913;28;20517;-85
2021/08/04 06:45:29;;;;;;;5.75;4.28;;;15.90;95.40;;;;;;4981277;28;20030;-86
2021/08/04 06:47:55;;;;;;;5.72;4.03;;;16.00;95.40;;;;;;4981519;28;20042;-86
2021/08/04 06:50:21;;;;;;;5.47;4.43;;;16.00;95.40;;;;;;4986496;28;20058;-84
2021/08/04 06:52:46;;;;;;;5.65;4.10;;;16.10;95.50;;;;;;5012295;28;20459;-86
2021/08/04 06:55:12;;;;;;;5.05;3.90;;;16.10;95.50;;;;;;4989791;28;20029;-87
2021/08/04 06:57:38;;;;;;;5.70;3.90;;;16.20;95.50;;;;;;4983841;28;20448;-86
2021/08/04 07:00:04;;;;;;;5.13;3.97;;;16.20;95.50;;;;;;4980988;28;20065;-86
2021/08/04 07:02:30;;;;;;;5.68;4.32;;;16.30;95.60;;;;;;5007034;28;20489;-87
2021/08/04 07:04:55;;;;;;;4.95;4.18;;;16.30;95.60;;;;;;4980237;28;20037;-86
2021/08/04 07:07:21;;;;;;;7.25;4.32;;;16.40;95.70;;;;;;4972342;28;20030;-87
2021/08/04 07:09:48;;;;;;;6.95;3.65;;;16.40;95.70;;;;;;4994306;28;20034;-87
2021/08/04 07:12:14;;;;;;;5.22;3.80;;;16.50;95.70;;;;;;4970130;28;20384;-87
2021/08/04 07:14:40;;;;;;;5.35;4.22;;;16.50;95.80;;;;;;4998185;28;20034;-88
2021/08/04 07:17:06;;;;;;;5.30;3.95;;;16.60;95.80;;;;;;4993905;28;20061;-88
2021/08/04 07:19:32;;;;;;;5.40;4.22;;;16.60;95.90;;;;;;5005495;28;20459;-87
2021/08/04 07:21:58;;;;;;;4.97;3.70;;;16.70;95.90;;;;;;5015153;28;20368;-88
2021/08/04 07:24:24;;;;;;;6.55;4.22;;;16.80;95.90;;;;;;5003970;28;20041;-88
2021/08/04 07:26:50;;;;;;;5.63;3.92;;;16.80;95.90;;;;;;4992204;28;20117;-88
2021/08/04 07:29:15;;;;;;;6.63;4.22;;;16.90;95.90;;;;;;4995259;28;20068;-87
2021/08/04 07:31:41;;;;;;;5.20;4.25;;;17.00;96.00;;;;;;4996157;28;20034;-88
2021/08/04 07:34:08;;;;;;;5.82;4.10;;;17.10;96.00;;;;;;4982378;28;20037;-88
2021/08/04 07:36:34;;;;;;;4.45;3.72;;;17.10;96.00;;;;;;4996588;28;20487;-88
2021/08/04 07:39:00;;;;;;;5.43;3.83;;;17.20;96.00;;;;;;4996054;28;20045;-88
2021/08/04 07:41:26;;;;;;;5.72;4.40;;;17.20;96.00;;;;;;4979747;28;20026;-87
2021/08/04 07:43:51;;;;;;;5.32;3.42;;;17.30;95.90;;;;;;4996114;28;20022;-88
2021/08/04 07:46:17;;;;;;;6.20;3.83;;;17.40;95.90;;;;;;4995762;28;20053;-88
2021/08/04 07:48:46;;;;;;;4.95;3.60;;;17.50;95.90;;;;;;5005855;28;20113;-88
2021/08/04 07:51:12;;;;;;;5.90;4.15;;;17.50;95.90;;;;;;4982369;28;20101;-88
2021/08/04 07:53:38;;;;;;;4.63;3.60;;;17.60;96.00;;;;;;4972056;28;20129;-88
2021/08/04 07:56:04;;;;;;;3.63;3.22;;;17.60;96.00;;;;;;4982138;28;20539;-88
2021/08/04 07:58:30;;;;;;;5.53;4.07;;;17.70;96.00;;;;;;5002220;28;20030;-87
2021/08/04 08:00:55;;;;;;;4.78;3.22;;;17.80;96.10;;;;;;4979435;28;20033;-88
2021/08/04 08:03:21;;;;;;;5.70;3.35;;;17.90;96.00;;;;;;4989569;28;20077;-88
2021/08/04 08:05:47;;;;;;;4.80;3.50;;;17.90;96.00;;;;;;4967422;28;20491;-87
2021/08/04 08:08:13;;;;;;;4.85;3.20;;;18.00;96.00;;;;;;4979369;28;20018;-87
2021/08/04 08:10:41;;;;;;;4.40;3.53;;;18.10;96.00;;;;;;4995608;28;20040;-88
2021/08/04 08:13:07;;;;;;;3.85;3.10;;;18.20;96.00;;;;;;5011957;28;20069;-87
2021/08/04 08:15:34;;;;;;;5.43;3.42;;;18.20;96.00;;;;;;5011725;28;20030;-87
2021/08/04 08:18:08;;;;;;;5.25;3.47;;;18.30;96.00;;;;;;5011812;28;20022;-88
2021/08/04 08:20:34;;;;;;;5.05;3.65;;;18.40;95.90;;;;;;5008439;28;20042;-88
2021/08/04 08:23:00;;;;;;;4.38;3.58;;;18.50;95.90;;;;;;4962476;28;20026;-86
2021/08/04 08:25:26;;;;;;;5.05;3.50;;;18.60;95.80;;;;;;4940751;28;20034;-87
2021/08/04 08:27:52;;;;;;;4.90;3.42;;;18.60;96.00;;;;;;4971122;28;20026;-87
2021/08/04 08:30:18;;;;;;;4.60;3.30;;;18.70;95.70;;;;;;4976012;28;20061;-86
2021/08/04 08:32:48;;;;;;;4.50;3.45;;;18.80;95.70;;;;;;4959907;28;20057;-87
2021/08/04 08:35:15;;;;;;;5.43;3.40;;;18.90;95.80;;;;;;4960759;28;20034;-88
2021/08/04 08:37:42;;;;;;;5.57;3.65;;;19.00;95.80;;;;;;4993764;28;20026;-88
2021/08/04 08:40:09;;;;;;;4.55;3.15;;;19.00;95.60;;;;;;4959595;28;20494;-88
2021/08/04 08:42:38;;;;;;;4.80;3.40;;;19.10;95.50;;;;;;4967077;28;20023;-88
2021/08/04 08:45:04;;;;;;;5.45;3.92;;;19.20;95.40;;;;;;4989970;28;20022;-88
2021/08/04 08:47:30;;;;;;;4.97;3.50;;;19.20;95.10;;;;;;4975628;28;20391;-88
2021/08/04 08:49:59;;;;;;;4.25;3.30;;;19.30;95.00;;;;;;4956340;28;20087;-88
2021/08/04 08:52:25;;;;;;;4.60;2.92;;;19.40;95.00;;;;;;4975510;28;20026;-88
2021/08/04 08:54:51;;;;;;;4.20;3.03;;;19.40;95.00;;;;;;4963284;28;20572;-88
2021/08/04 08:57:17;;;;;;;3.25;2.45;;;19.60;95.00;;;;;;4944431;28;20045;-88
2021/08/04 08:59:42;;;;;;;4.80;2.97;;;19.60;94.90;;;;;;4975605;28;20027;-88
2021/08/04 09:02:08;;;;;;;4.45;2.38;;;19.70;94.90;;;;;;4940003;28;20023;-88
2021/08/04 09:04:34;;;;;;;3.72;2.45;;;19.80;94.70;;;;;;4929196;28;20459;-88
2021/08/04 09:07:01;;;;;;;2.80;2.10;;;19.80;94.60;;;;;;4951584;28;20412;-88
2021/08/04 09:09:32;;;;;;;3.08;2.05;;;19.90;94.60;;;;;;4959598;28;20037;-88
2021/08/04 09:12:10;;;;;;;3.38;2.10;;;20.00;94.60;;;;;;4962269;28;20022;-88
2021/08/04 09:14:38;;;;;;;2.08;1.75;;;20.10;94.50;;;;;;4963266;28;20022;-88
2021/08/04 09:17:05;;;;;;;3.33;2.28;;;20.10;94.40;;;;;;4975678;28;20118;-89
2021/08/04 09:19:33;;;;;;;3.20;2.55;;;20.30;94.20;;;;;;4961631;28;20384;-89
2021/08/04 09:22:10;;;;;;;3.92;2.15;;;20.30;94.00;;;;;;4996989;28;20073;-88
2021/08/04 09:25:14;;;;;;;3.15;1.98;;;20.30;93.80;;;;;;5012556;28;20045;-88
2021/08/04 09:27:50;;;;;;;2.47;1.90;;;20.50;93.70;;;;;;4938630;29;20028;-88
2021/08/04 09:30:25;;;;;;;2.72;1.90;;;20.50;93.60;;;;;;4996906;28;20396;-88
2021/08/04 09:32:51;;;;;;;2.58;1.80;;;20.60;93.50;;;;;;5012539;28;20021;-87
2021/08/04 09:35:20;;;;;;;3.70;1.73;;;20.70;93.40;;;;;;5010938;28;20022;-88
2021/08/04 09:37:48;;;;;;;4.72;2.05;;;20.70;93.20;;;;;;5010938;28;20026;-88
2021/08/04 09:40:16;;;;;;;3.70;1.90;;;20.80;93.20;;;;;;4996929;28;20538;-88
2021/08/04 09:42:49;;;;;;;4.07;2.30;;;20.80;93.00;;;;;;5011042;28;20026;-88
2021/08/04 09:45:18;;;;;;;3.17;2.00;;;20.90;92.50;;;;;;4997607;28;20027;-88
2021/08/04 09:48:03;;;;;;;3.42;2.55;;;20.90;92.20;;;;;;4991443;28;20042;-88
2021/08/04 09:50:47;;;;;;;3.88;2.70;;;21.00;91.70;;;;;;5005339;28;20025;-88
2021/08/04 09:53:22;;;;;;;3.20;2.42;;;21.00;91.50;;;;;;5014243;28;20132;-87
2021/08/04 09:56:09;;;;;;;2.50;2.00;;;21.10;91.50;;;;;;5001115;28;20038;-87
2021/08/04 09:58:36;;;;;;;2.63;1.75;;;21.20;91.50;;;;;;5015206;28;20034;-88
2021/08/04 10:01:04;;;;;;;2.58;1.80;;;21.20;91.40;;;;;;5010611;28;20033;-88
2021/08/04 10:03:31;;;;;;;2.42;1.55;;;21.30;91.20;;;;;;5005046;28;20084;-88
2021/08/04 10:05:57;;;;;;;3.10;1.80;;;21.40;91.20;;;;;;5000329;28;20052;-88
2021/08/04 10:08:23;;;;;;;3.08;1.95;;;21.40;91.10;;;;;;5013933;28;20030;-88
2021/08/04 10:10:51;;;;;;;3.70;2.00;;;21.50;90.90;;;;;;4997662;28;20109;-87
2021/08/04 10:13:19;;;;;;;2.53;1.80;;;21.60;90.80;;;;;;5000393;28;20014;-87
2021/08/04 10:15:51;;;;;;;3.10;2.22;;;21.60;90.30;;;;;;4997381;28;20109;-87
2021/08/04 10:18:21;;;;;;;3.90;2.20;;;21.70;90.20;;;;;;5013787;28;20026;-88
2021/08/04 10:20:49;;;;;;;2.92;2.00;;;21.70;89.80;;;;;;5012331;23;20070;-85
2021/08/04 10:23:17;;;;;;;4.88;2.60;;;21.80;89.90;;;;;;4977681;28;20061;-85
2021/08/04 10:25:44;;;;;;;5.00;2.60;;;21.90;87.40;;;;;;4991305;28;20030;-85
2021/08/04 10:28:11;;;;;;;4.15;2.25;;;21.90;86.50;;;;;;4991292;28;20462;-85
2021/08/04 10:30:38;;;;;;;3.88;2.08;;;22.00;85.50;;;;;;4977788;28;20029;-85
2021/08/04 10:33:05;;;;;;;3.00;2.22;;;22.00;85.40;;;;;;4977232;28;20356;-85
2021/08/04 10:35:33;;;;;;;3.25;2.10;;;22.00;84.90;;;;;;4979921;28;20113;-84
2021/08/04 10:38:00;;;;;;;3.97;2.10;;;22.10;85.10;;;;;;4973770;28;20125;-85
2021/08/04 10:40:27;;;;;;;3.38;2.10;;;22.10;85.00;;;;;;4953996;28;20030;-85
2021/08/04 10:42:53;;;;;;;3.25;2.00;;;22.10;85.60;;;;;;4966487;28;20033;-85
2021/08/04 10:45:28;;;;;;;3.90;1.70;;;22.10;84.80;;;;;;4993301;28;20025;-86
2021/08/04 10:47:57;;;;;;;2.17;1.70;;;22.20;85.10;;;;;;4996511;28;20597;-85
2021/08/04 10:50:23;;;;;;;2.72;1.67;;;22.30;85.20;;;;;;4993422;28;20174;-85
2021/08/04 10:52:58;;;;;;;3.42;2.22;;;22.30;84.90;;;;;;4961336;28;20065;-85
2021/08/04 10:55:28;;;;;;;2.70;1.92;;;22.40;83.60;;;;;;4996647;28;20076;-85
2021/08/04 10:58:10;;;;;;;4.63;2.60;;;22.40;84.00;;;;;;4993256;28;20492;-85
2021/08/04 11:00:36;;;;;;;4.38;2.78;;;22.50;80.40;;;;;;4993054;28;20062;-85
2021/08/04 11:03:29;;;;;;;4.13;2.88;;;22.50;81.30;;;;;;4976822;28;20133;-85
2021/08/04 11:06:08;;;;;;;4.07;2.40;;;22.50;79.80;;;;;;4988526;28;20022;-85
2021/08/04 11:08:41;;;;;;;2.70;2.25;;;22.50;80.60;;;;;;4992956;28;20058;-85
2021/08/04 11:11:07;;;;;;;3.05;1.90;;;22.50;80.70;;;;;;4981447;28;20118;-85
2021/08/04 11:13:44;;;;;;;3.60;2.05;;;22.50;81.10;;;;;;4993164;28;20034;-85
2021/08/04 11:16:29;;;;;;;2.70;1.70;;;22.60;81.80;;;;;;4996271;28;20049;-85
2021/08/04 11:19:09;;;;;;;2.42;1.50;;;22.70;82.40;;;;;;4996394;28;20026;-85
2021/08/04 11:21:38;;;;;;;3.03;1.92;;;22.70;82.60;;;;;;4964882;28;20046;-86
2021/08/04 11:24:06;;;;;;;6.03;2.08;;;22.80;82.80;;;;;;4952055;28;20362;-85
2021/08/04 11:26:39;;;;;;;2.47;1.80;;;23.00;83.10;;;;;;4947869;28;20097;-84
2021/08/04 11:29:06;;;;;;;5.25;2.53;;;23.00;82.70;;;;;;4950914;28;20038;-85
2021/08/04 11:31:33;;;;;;;3.83;2.40;;;23.10;81.90;;;;;;4993682;28;20201;-86
2021/08/04 11:34:29;;;;;;;3.70;2.25;;;23.20;80.40;;;;;;4984567;28;20535;-85
2021/08/04 11:37:02;;;;;;;4.20;2.40;;;23.30;78.70;;;;;;4964946;28;20573;-85
2021/08/04 11:39:28;;;;;;;2.40;1.80;;;23.30;77.60;;;;;;4957674;28;20045;-84
2021/08/04 11:41:54;;;;;;;3.63;2.10;;;23.40;77.90;;;;;;4976576;28;20026;-85
2021/08/04 11:44:24;;;;;;;2.97;2.00;;;23.50;78.80;;;;;;4960865;28;20210;-83
2021/08/04 11:47:09;;;;;;;4.72;2.20;;;23.50;75.90;;;;;;4984042;28;20034;-84
2021/08/04 11:49:35;;;;;;;3.35;1.98;;;23.60;76.80;;;;;;4993509;28;20050;-83
2021/08/04 11:52:05;;;;;;;2.10;1.58;;;23.60;76.60;;;;;;5006817;28;20064;-84
2021/08/04 11:54:33;;;;;;;3.45;1.77;;;23.70;76.80;;;;;;4994886;28;20476;-83
2021/08/04 11:56:59;;;;;;;3.35;2.13;;;23.80;77.00;;;;;;4993174;28;20068;-83
2021/08/04 11:59:25;;;;;;;2.72;2.13;;;23.80;75.70;;;;;;5012650;28;20470;-83
2021/08/04 12:02:00;;;;;;;3.50;2.28;;;23.90;76.30;;;;;;4977790;28;20629;-84
2021/08/04 12:04:27;;;;;;;3.42;2.28;;;24.00;74.00;;;;;;4985433;28;20026;-82
2021/08/04 12:07:01;;;;;;;3.50;2.30;;;24.00;73.50;;;;;;4983583;28;20027;-82
2021/08/04 12:09:30;;;;;;;2.15;1.85;;;24.00;72.90;;;;;;4986074;28;20053;-82
2021/08/04 12:11:57;;;;;;;3.55;1.90;;;24.00;73.40;;;;;;4992827;28;20038;-82
2021/08/04 12:14:24;;;;;;;3.70;2.33;;;24.10;73.60;;;;;;4979902;28;20066;-82
2021/08/04 12:16:58;;;;;;;3.03;2.17;;;24.10;73.20;;;;;;4975645;28;20026;-82
2021/08/04 12:19:32;;;;;;;3.13;2.00;;;24.10;70.60;;;;;;4979159;28;20038;-82
2021/08/04 12:21:58;;;;;;;2.97;2.10;;;24.10;72.70;;;;;;4984450;28;20046;-82
2021/08/04 12:24:24;;;;;;;3.45;2.45;;;24.20;74.30;;;;;;4959848;28;20392;-82
2021/08/04 12:26:51;;;;;;;3.35;2.20;;;24.20;71.80;;;;;;4983412;28;20030;-82
2021/08/04 12:29:27;;;;;;;4.78;2.22;;;24.20;71.10;;;;;;4962449;28;20035;-81
2021/08/04 12:32:11;;;;;;;3.35;2.50;;;24.20;71.00;;;;;;4997578;28;20030;-81
2021/08/04 12:34:58;;;;;;;3.25;2.10;;;24.20;70.50;;;;;;4992935;28;20049;-81
2021/08/04 12:37:24;;;;;;;3.13;2.30;;;24.10;70.40;;;;;;4975379;28;20049;-81
2021/08/04 12:39:52;;;;;;;3.60;2.20;;;24.10;69.70;;;;;;4962802;28;20057;-82
2021/08/04 12:42:19;;;;;;;4.13;2.20;;;24.20;70.70;;;;;;4997767;28;20034;-81
2021/08/04 12:44:45;;;;;;;2.88;2.00;;;24.20;70.80;;;;;;4960772;28;20019;-82
2021/08/04 12:47:14;;;;;;;5.20;2.33;;;24.30;71.10;;;;;;4991338;28;20037;-81
2021/08/04 12:49:40;;;;;;;2.28;1.83;;;24.40;69.60;;;;;;4991241;28;20018;-82
2021/08/04 12:52:06;;;;;;;2.88;2.10;;;24.50;70.80;;;;;;4991360;28;20042;-81
2021/08/04 12:54:35;;;;;;;4.22;2.47;;;24.60;71.20;;;;;;4994637;28;20087;-82